^^
Mint Hill Weather Station Historical Data
 
Daily Summary for March 02, 2015 Units:  English    Metric   Both
« Previous Day
Next Day »
Daily Weekly Monthly Yearly Custom
  Current: High: Low: Average:
Temperature: 56.4 °F 69.8 °F 39.3 °F 51.6 °F
Dew Point: 46.4 °F 55.0 °F 38.5 °F 45.9 °F
Humidity: 69% 98% 53% 84%
Wind Speed: 0.0mph 5.0mph 0.0mph 1.7mph
Wind Gust: 0.0mph 8.1mph - -
WindCalm - - SW
Pressure: 30.24 in 30.29 in 30.17 in -
Precipitation: 0.00 in      
Historical Graphs
 
 
Tabular Data for March 02, 2015
Time Temperature Dew Point Pressure Wind Wind Speed Wind Gust Humidity Rainfall Rate (Hourly) solar Conditions
00:00 39.5 °F 38.7 °F 30.29 in West 2.1 mph 4.6 mph 97% 0.00 in 0.0 W/m2 RA
00:05 39.5 °F 38.7 °F 30.29 in WNW 0.3 mph 1.1 mph 97% 0.00 in 0.0 W/m2 RA
00:10 39.5 °F 38.7 °F 30.29 in WSW 1.5 mph 3.5 mph 97% 0.00 in 0.0 W/m2 BKN
00:15 39.5 °F 38.7 °F 30.29 in West 0.7 mph 2.3 mph 97% 0.00 in 0.0 W/m2 BKN
00:20 39.5 °F 38.7 °F 30.29 in WSW 2.4 mph 3.5 mph 97% 0.00 in 0.0 W/m2 BKN
00:25 39.5 °F 38.7 °F 30.28 in WSW 3.1 mph 4.6 mph 97% 0.00 in 0.0 W/m2 BKN
00:30 39.4 °F 38.6 °F 30.28 in WNW 1.9 mph 3.5 mph 97% 0.00 in 0.0 W/m2 BKN
00:35 39.4 °F 38.6 °F 30.28 in WSW 2.3 mph 4.6 mph 97% 0.00 in 0.0 W/m2 BKN
00:40 39.4 °F 38.6 °F 30.27 in WNW 2.4 mph 3.5 mph 97% 0.00 in 0.0 W/m2 BKN
00:45 39.3 °F 38.5 °F 30.27 in WNW 0.6 mph 3.5 mph 97% 0.00 in 0.0 W/m2 BKN
00:50 39.3 °F 38.5 °F 30.27 in WSW 1.0 mph 3.5 mph 97% 0.00 in 0.0 W/m2 BKN
00:55 39.3 °F 38.5 °F 30.27 in WNW 3.4 mph 6.0 mph 97% 0.00 in 0.0 W/m2 BKN
01:00 39.3 °F 38.5 °F 30.27 in WSW 3.2 mph 3.5 mph 97% 0.00 in 0.0 W/m2 BKN
01:05 39.3 °F 38.5 °F 30.27 in WSW 2.9 mph 5.8 mph 97% 0.00 in 0.0 W/m2 BKN
01:10 39.3 °F 38.5 °F 30.26 in West 2.5 mph 4.6 mph 97% 0.00 in 0.0 W/m2 BKN
01:15 39.3 °F 38.5 °F 30.26 in WSW 4.2 mph 5.8 mph 97% 0.00 in 0.0 W/m2 BKN
01:20 39.4 °F 38.6 °F 30.26 in West 2.3 mph 3.5 mph 97% 0.00 in 0.0 W/m2 BKN
01:25 39.4 °F 38.6 °F 30.26 in WSW 0.8 mph 2.3 mph 97% 0.00 in 0.0 W/m2 BKN
01:30 39.4 °F 38.6 °F 30.26 in West 5.0 mph 8.1 mph 97% 0.00 in 0.0 W/m2 BKN
01:35 39.4 °F 38.6 °F 30.25 in SW 3.0 mph 3.5 mph 97% 0.00 in 0.0 W/m2 BKN
01:40 39.5 °F 38.7 °F 30.25 in SW 2.3 mph 4.6 mph 97% 0.00 in 0.0 W/m2 BKN
01:45 39.5 °F 38.7 °F 30.25 in West 2.2 mph 5.0 mph 97% 0.00 in 0.0 W/m2 BKN
01:50 39.5 °F 38.7 °F 30.24 in West 2.3 mph 3.5 mph 97% 0.00 in 0.0 W/m2 BKN
01:55 39.5 °F 38.7 °F 30.24 in SW 2.7 mph 3.5 mph 97% 0.00 in 0.0 W/m2 BKN
02:00 39.6 °F 38.8 °F 30.24 in West 3.2 mph 4.0 mph 97% 0.00 in 0.0 W/m2 BKN
02:05 39.6 °F 38.8 °F 30.24 in WSW 4.2 mph 5.8 mph 97% 0.00 in 0.0 W/m2 BKN
02:10 39.7 °F 38.9 °F 30.24 in WNW 3.7 mph 8.1 mph 97% 0.00 in 0.0 W/m2 BKN
02:15 39.7 °F 38.9 °F 30.23 in West 2.3 mph 4.6 mph 97% 0.00 in 0.0 W/m2 BKN
02:20 39.8 °F 39.0 °F 30.23 in West 2.7 mph 5.0 mph 97% 0.00 in 0.0 W/m2 BKN
02:25 39.8 °F 39.0 °F 30.23 in SW 2.0 mph 3.5 mph 97% 0.00 in 0.0 W/m2 BKN
02:30 39.9 °F 39.1 °F 30.23 in West 1.8 mph 5.8 mph 97% 0.00 in 0.0 W/m2 BKN
02:35 39.9 °F 39.1 °F 30.22 in WSW 2.3 mph 3.5 mph 97% 0.00 in 0.0 W/m2 BKN
02:40 39.9 °F 39.1 °F 30.22 in West 4.0 mph 5.8 mph 97% 0.00 in 0.0 W/m2 BKN
02:45 39.9 °F 39.1 °F 30.22 in West 0.9 mph 1.1 mph 97% 0.00 in 0.0 W/m2 BKN
02:50 39.9 °F 39.1 °F 30.21 in SW 2.7 mph 7.0 mph 97% 0.00 in 0.0 W/m2 BKN
02:55 40.0 °F 39.2 °F 30.21 in West 1.7 mph 2.3 mph 97% 0.00 in 0.0 W/m2 BKN
03:00 40.0 °F 39.2 °F 30.20 in WSW 0.6 mph 2.3 mph 97% 0.00 in 0.0 W/m2 BKN
03:05 40.0 °F 39.2 °F 30.21 in SW 1.4 mph 3.5 mph 97% 0.00 in 0.0 W/m2 BKN
03:11 40.0 °F 39.2 °F 30.20 in NW 1.8 mph 3.0 mph 97% 0.00 in 0.0 W/m2 BKN
03:16 40.0 °F 39.2 °F 30.20 in SW 1.8 mph 4.6 mph 97% 0.00 in 0.0 W/m2 BKN
03:21 40.1 °F 39.3 °F 30.19 in WSW 3.4 mph 5.8 mph 97% 0.00 in 0.0 W/m2 BKN
03:26 40.1 °F 39.3 °F 30.19 in WSW 2.5 mph 3.5 mph 97% 0.00 in 0.0 W/m2 BKN
03:31 40.2 °F 39.4 °F 30.19 in WSW 3.2 mph 4.6 mph 97% 0.00 in 0.0 W/m2 BKN
03:36 40.2 °F 39.4 °F 30.19 in WNW 2.0 mph 5.8 mph 97% 0.00 in 0.0 W/m2 BKN
03:41 40.3 °F 39.5 °F 30.18 in West 1.2 mph 2.3 mph 97% 0.00 in 0.0 W/m2 BKN
03:46 40.4 °F 39.6 °F 30.18 in SW 0.5 mph 4.0 mph 97% 0.00 in 0.0 W/m2 BKN
03:51 40.4 °F 39.6 °F 30.18 in WSW 0.6 mph 3.5 mph 97% 0.00 in 0.0 W/m2 BKN
03:56 40.4 °F 39.6 °F 30.18 in West 1.7 mph 3.5 mph 97% 0.00 in 0.0 W/m2 BKN
04:01 40.5 °F 39.7 °F 30.18 in SW 0.8 mph 3.5 mph 97% 0.00 in 0.0 W/m2 BKN
04:06 40.6 °F 39.8 °F 30.19 in West 2.2 mph 3.5 mph 97% 0.00 in 0.0 W/m2 BKN
04:11 40.6 °F 39.8 °F 30.19 in West 1.9 mph 3.5 mph 97% 0.00 in 0.0 W/m2 BKN
04:16 40.6 °F 39.8 °F 30.18 in North 1.0 mph 2.3 mph 97% 0.00 in 0.0 W/m2 BKN
04:21 40.7 °F 39.9 °F 30.18 in West 1.8 mph 3.5 mph 97% 0.00 in 0.0 W/m2 BKN
04:26 40.7 °F 39.9 °F 30.17 in SW 1.0 mph 4.6 mph 97% 0.00 in 0.0 W/m2 BKN
04:31 40.8 °F 40.0 °F 30.17 in WSW 2.0 mph 3.5 mph 97% 0.00 in 0.0 W/m2 BKN
04:36 40.9 °F 40.1 °F 30.17 in SSW 3.2 mph 5.8 mph 97% 0.00 in 0.0 W/m2 BKN
04:41 41.0 °F 40.2 °F 30.17 in WNW 2.5 mph 8.1 mph 97% 0.00 in 0.0 W/m2 BKN
04:46 41.1 °F 40.3 °F 30.17 in West 2.9 mph 5.8 mph 97% 0.00 in 0.0 W/m2 BKN
04:51 41.1 °F 40.3 °F 30.18 in WSW 3.5 mph 5.8 mph 97% 0.00 in 0.0 W/m2 BKN
04:56 41.2 °F 40.4 °F 30.17 in West 2.7 mph 4.6 mph 97% 0.00 in 0.0 W/m2 BKN
05:01 41.3 °F 40.5 °F 30.18 in NW 3.0 mph 4.0 mph 97% 0.00 in 0.0 W/m2 BKN
05:06 41.5 °F 40.7 °F 30.18 in West 2.4 mph 4.6 mph 97% 0.00 in 0.0 W/m2 BKN
05:11 41.6 °F 40.8 °F 30.18 in WSW 1.0 mph 3.5 mph 97% 0.00 in 0.0 W/m2 BKN
05:16 41.7 °F 40.9 °F 30.18 in NW 1.6 mph 3.5 mph 97% 0.00 in 0.0 W/m2 BKN
05:21 41.8 °F 41.0 °F 30.18 in WSW 0.7 mph 3.5 mph 97% 0.00 in 0.0 W/m2 BKN
05:26 41.9 °F 41.1 °F 30.18 in West 1.7 mph 3.5 mph 97% 0.00 in 0.0 W/m2 BKN
05:31 41.9 °F 41.1 °F 30.18 in WNW 1.9 mph 3.5 mph 97% 0.00 in 0.0 W/m2 BKN
05:36 42.0 °F 41.2 °F 30.18 in West 2.2 mph 3.5 mph 97% 0.00 in 0.0 W/m2 BKN
05:41 42.0 °F 41.2 °F 30.19 in West 3.4 mph 3.5 mph 97% 0.00 in 0.0 W/m2 BKN
05:46 42.1 °F 41.3 °F 30.19 in WNW 2.2 mph 4.6 mph 97% 0.00 in 0.0 W/m2 BKN
05:51 42.1 °F 41.3 °F 30.19 in West 2.6 mph 3.5 mph 97% 0.00 in 0.0 W/m2 BKN
05:56 42.1 °F 41.3 °F 30.19 in West 0.4 mph 1.1 mph 97% 0.00 in 0.0 W/m2 BKN
06:01 42.2 °F 41.4 °F 30.19 in NW 1.5 mph 3.5 mph 97% 0.00 in 0.0 W/m2 BKN
06:06 42.2 °F 41.4 °F 30.19 in WNW 1.8 mph 3.5 mph 97% 0.00 in 0.0 W/m2 BKN
06:11 42.2 °F 41.4 °F 30.19 in NW 1.4 mph 3.5 mph 97% 0.00 in 0.0 W/m2 BKN
06:16 42.2 °F 41.4 °F 30.18 in SW 1.4 mph 3.5 mph 97% 0.00 in 0.0 W/m2 BKN
06:21 42.2 °F 41.4 °F 30.19 in WSW 3.7 mph 4.6 mph 97% 0.00 in 0.0 W/m2 BKN
06:26 42.3 °F 41.5 °F 30.19 in WSW 0.7 mph 2.0 mph 97% 0.00 in 0.0 W/m2 BKN
06:31 42.3 °F 41.5 °F 30.18 in Calm   2.3 mph 97% 0.00 in 0.0 W/m2 BKN
06:36 42.4 °F 41.6 °F 30.19 in West 2.1 mph 3.5 mph 97% 0.00 in 0.0 W/m2 BKN
06:41 42.4 °F 41.6 °F 30.19 in West 2.5 mph 3.5 mph 97% 0.00 in 0.0 W/m2 BKN
06:46 42.5 °F 41.7 °F 30.19 in SW 0.6 mph 1.1 mph 97% 0.00 in 0.0 W/m2 BKN
06:51 42.5 °F 41.7 °F 30.18 in West 0.3 mph 1.1 mph 97% 0.00 in 0.0 W/m2 BKN
06:56 42.5 °F 41.7 °F 30.19 in SW 1.4 mph 3.5 mph 97% 0.00 in 0.0 W/m2 BKN
07:01 42.5 °F 41.7 °F 30.19 in WSW 0.8 mph 2.3 mph 97% 0.00 in 6.0 W/m2 BKN
07:06 42.5 °F 41.7 °F 30.19 in WSW 0.4 mph 2.3 mph 97% 0.00 in 8.4 W/m2 BKN
07:11 42.5 °F 41.7 °F 30.19 in SW 0.3 mph 2.0 mph 97% 0.00 in 13.2 W/m2 BKN
07:16 42.6 °F 41.8 °F 30.19 in WSW 0.9 mph 3.0 mph 97% 0.00 in 16.8 W/m2 BKN
07:21 42.6 °F 41.8 °F 30.19 in Calm   1.1 mph 97% 0.00 in 21.6 W/m2 BKN
07:26 42.7 °F 41.9 °F 30.19 in WSW 0.9 mph 2.3 mph 97% 0.00 in 25.2 W/m2 BKN
07:31 42.7 °F 41.9 °F 30.19 in Calm   1.1 mph 97% 0.00 in 27.6 W/m2 BKN
07:36 42.8 °F 42.3 °F 30.20 in WNW 0.6 mph 2.3 mph 98% 0.00 in 31.2 W/m2 BKN
07:41 42.8 °F 42.3 °F 30.20 in Calm   1.1 mph 98% 0.00 in 31.2 W/m2 BKN
07:46 42.9 °F 42.4 °F 30.21 in WNW 0.7 mph   98% 0.00 in 30.0 W/m2 BKN
07:51 43.0 °F 42.5 °F 30.21 in West 1.9 mph 3.0 mph 98% 0.00 in 36.0 W/m2 BKN
07:56 43.2 °F 42.4 °F 30.21 in West 0.9 mph 1.1 mph 97% 0.00 in 42.0 W/m2 BKN
08:01 43.2 °F 42.4 °F 30.21 in WNW 1.6 mph 3.5 mph 97% 0.00 in 46.8 W/m2 BKN
08:06 43.3 °F 42.5 °F 30.22 in West 1.2 mph 3.5 mph 97% 0.00 in 50.4 W/m2 BKN
08:11 43.4 °F 42.9 °F 30.22 in WSW 2.5 mph 2.5 mph 98% 0.00 in 55.2 W/m2 BKN
08:16 43.5 °F 43.0 °F 30.22 in West 1.6 mph 3.5 mph 98% 0.00 in 63.6 W/m2 BKN
08:21 43.6 °F 43.1 °F 30.22 in West 3.7 mph 5.0 mph 98% 0.00 in 75.6 W/m2 BKN
08:26 43.7 °F 43.2 °F 30.22 in WNW 0.9 mph 2.3 mph 98% 0.00 in 69.6 W/m2 BKN
08:31 43.8 °F 43.3 °F 30.22 in WNW 1.5 mph 3.5 mph 98% 0.00 in 69.6 W/m2 BKN
08:36 44.0 °F 43.5 °F 30.23 in WNW 2.1 mph 4.0 mph 98% 0.00 in 78.0 W/m2 BKN
08:41 44.2 °F 43.7 °F 30.22 in West 2.6 mph 4.6 mph 98% 0.00 in 100.8 W/m2 BKN
08:47 44.3 °F 43.8 °F 30.22 in NW 1.6 mph 4.0 mph 98% 0.00 in 105.6 W/m2 BKN
08:52 44.5 °F 44.0 °F 30.23 in WSW 4.0 mph 6.9 mph 98% 0.00 in 88.8 W/m2 BKN
08:57 44.6 °F 44.1 °F 30.23 in West 1.2 mph 3.5 mph 98% 0.00 in 92.4 W/m2 BKN
09:02 44.7 °F 44.2 °F 30.23 in WNW 3.4 mph 4.6 mph 98% 0.00 in 109.2 W/m2 BKN
09:07 44.8 °F 44.3 °F 30.23 in West 3.4 mph 4.6 mph 98% 0.00 in 116.4 W/m2 BKN
09:12 45.0 °F 44.5 °F 30.22 in NW 0.4 mph 2.3 mph 98% 0.00 in 116.4 W/m2 BKN
09:17 45.2 °F 44.7 °F 30.22 in WNW 0.3 mph 1.1 mph 98% 0.00 in 114.0 W/m2 BKN
09:22 45.4 °F 44.9 °F 30.23 in WNW 4.0 mph 6.9 mph 98% 0.00 in 169.2 W/m2 BKN
09:27 45.5 °F 45.0 °F 30.23 in WSW 2.6 mph 4.6 mph 98% 0.00 in 200.4 W/m2 BKN
09:32 45.8 °F 45.3 °F 30.23 in WNW 4.0 mph 5.8 mph 98% 0.00 in 183.6 W/m2 BKN
09:37 46.0 °F 45.5 °F 30.23 in West 2.0 mph 3.5 mph 98% 0.00 in 164.4 W/m2 BKN
09:42 46.3 °F 45.8 °F 30.23 in WNW 1.4 mph 3.5 mph 98% 0.00 in 172.8 W/m2 BKN
09:47 46.4 °F 45.9 °F 30.23 in West 3.9 mph 5.8 mph 98% 0.00 in 195.6 W/m2 BKN
09:52 46.5 °F 46.0 °F 30.24 in NW 2.5 mph 5.8 mph 98% 0.00 in 238.8 W/m2 SCT
09:57 46.9 °F 46.4 °F 30.24 in West 2.7 mph 4.6 mph 98% 0.00 in 213.6 W/m2 SCT
10:02 47.2 °F 46.7 °F 30.24 in NW 0.5 mph 3.5 mph 98% 0.00 in 219.6 W/m2 OVC
10:07 47.4 °F 46.9 °F 30.24 in NW 4.1 mph 4.6 mph 98% 0.00 in 230.4 W/m2 OVC
10:12 47.4 °F 46.9 °F 30.24 in WNW 3.5 mph 4.6 mph 98% 0.00 in 295.2 W/m2 OVC
10:17 47.6 °F 47.1 °F 30.23 in ENE 0.8 mph 2.3 mph 98% 0.00 in 244.8 W/m2 OVC
10:22 47.9 °F 47.4 °F 30.23 in WNW 0.9 mph 4.6 mph 98% 0.00 in 289.2 W/m2 OVC
10:27 48.0 °F 47.5 °F 30.24 in WNW 1.6 mph 3.5 mph 98% 0.00 in 348.0 W/m2 OVC
10:32 48.1 °F 47.6 °F 30.23 in NW 2.9 mph 3.5 mph 98% 0.00 in 228.0 W/m2 OVC
10:37 48.3 °F 47.8 °F 30.23 in SW 3.2 mph 3.5 mph 98% 0.00 in 234.0 W/m2 OVC
10:42 48.6 °F 48.1 °F 30.23 in WNW 2.3 mph 3.5 mph 98% 0.00 in 534.0 W/m2 OVC
10:47 49.0 °F 48.5 °F 30.24 in WSW 1.1 mph 3.5 mph 98% 0.00 in 420.0 W/m2 OVC
10:52 49.4 °F 48.9 °F 30.23 in West 1.1 mph 3.5 mph 98% 0.00 in 354.0 W/m2 OVC
10:57 50.2 °F 49.7 °F 30.23 in Calm     98% 0.00 in 640.8 W/m2 OVC
11:02 50.7 °F 50.2 °F 30.23 in WNW 2.3 mph 3.5 mph 98% 0.00 in 745.2 W/m2 OVC
11:07 51.2 °F 50.7 °F 30.23 in West 2.0 mph 3.5 mph 98% 0.00 in 732.0 W/m2 OVC
11:12 51.8 °F 51.3 °F 30.22 in West 0.3 mph 2.3 mph 98% 0.00 in 837.6 W/m2 OVC
11:17 52.9 °F 52.1 °F 30.22 in NW 0.1 mph 1.1 mph 97% 0.00 in 874.8 W/m2 OVC
11:22 54.0 °F 52.9 °F 30.23 in West 0.7 mph 2.0 mph 96% 0.00 in 894.0 W/m2 OVC
11:27 54.8 °F 52.8 °F 30.23 in SW 1.2 mph 2.3 mph 93% 0.00 in 901.2 W/m2 OVC
11:32 55.0 °F 52.1 °F 30.23 in West 3.4 mph 5.8 mph 90% 0.00 in 831.6 W/m2 OVC
11:37 55.4 °F 52.5 °F 30.23 in NNW 1.4 mph 3.0 mph 90% 0.00 in 854.4 W/m2 OVC
11:42 56.3 °F 52.8 °F 30.23 in NNW 0.3 mph 2.3 mph 88% 0.00 in 879.6 W/m2 OVC
11:47 56.6 °F 52.1 °F 30.23 in WSW 2.5 mph 3.5 mph 85% 0.00 in 865.2 W/m2 OVC
11:52 56.9 °F 52.4 °F 30.23 in West 4.0 mph 4.6 mph 85% 0.00 in 919.2 W/m2 OVC
11:57 57.3 °F 52.5 °F 30.23 in West 3.3 mph 5.8 mph 84% 0.00 in 879.6 W/m2 OVC
12:02 57.5 °F 52.7 °F 30.23 in SW 3.6 mph 3.6 mph 84% 0.00 in 936.0 W/m2 SCT
12:07 58.1 °F 53.0 °F 30.23 in SW 3.5 mph 5.8 mph 83% 0.00 in 915.6 W/m2 SCT
12:12 58.6 °F 52.4 °F 30.23 in WSW 2.7 mph 3.5 mph 80% 0.00 in 858.0 W/m2 SCT
12:17 59.4 °F 54.2 °F 30.22 in WNW 2.2 mph 8.1 mph 83% 0.00 in 907.2 W/m2 SCT
12:22 59.9 °F 53.0 °F 30.22 in West 0.3 mph 3.5 mph 78% 0.00 in 934.8 W/m2 SCT
12:27 60.7 °F 54.1 °F 30.22 in West 1.1 mph 2.3 mph 79% 0.00 in 907.2 W/m2 SCT
12:32 61.3 °F 54.4 °F 30.22 in SW 1.6 mph 2.3 mph 78% 0.00 in 945.6 W/m2 SCT
12:37 62.1 °F 54.8 °F 30.22 in NNW 1.9 mph 3.5 mph 77% 0.00 in 926.4 W/m2 SCT
12:42 63.1 °F 54.3 °F 30.21 in ENE 2.2 mph 3.5 mph 73% 0.00 in 884.4 W/m2 SCT
12:47 63.8 °F 55.0 °F 30.21 in NW 0.8 mph 1.1 mph 73% 0.00 in 901.2 W/m2 SCT
12:52 64.3 °F 54.7 °F 30.21 in East 0.9 mph 4.6 mph 71% 0.00 in 918.0 W/m2 SCT
12:57 65.1 °F 54.3 °F 30.21 in West 3.6 mph 3.6 mph 68% 0.00 in 873.6 W/m2 SCT
13:02 65.0 °F 54.2 °F 30.20 in NNW 1.6 mph 3.5 mph 68% 0.00 in 907.2 W/m2 CLR
13:07 65.5 °F 53.4 °F 30.20 in SSE 1.3 mph 3.5 mph 65% 0.00 in 919.2 W/m2 CLR
13:12 65.8 °F 54.1 °F 30.20 in WSW 0.8 mph 3.5 mph 66% 0.00 in 910.8 W/m2 CLR
13:17 66.7 °F 53.3 °F 30.20 in North 1.7 mph 5.8 mph 62% 0.00 in 918.0 W/m2 CLR
13:22 65.0 °F 51.7 °F 30.20 in NW 2.1 mph 4.0 mph 62% 0.00 in 866.4 W/m2 CLR
13:27 64.7 °F 51.4 °F 30.20 in NW 3.3 mph 5.0 mph 62% 0.00 in 913.2 W/m2 CLR
13:32 64.8 °F 52.8 °F 30.19 in ENE 1.7 mph 3.0 mph 65% 0.00 in 874.8 W/m2 CLR
13:37 66.0 °F 53.0 °F 30.19 in NNE 4.0 mph 4.0 mph 63% 0.00 in 1008.0 W/m2 CLR
13:42 65.9 °F 52.5 °F 30.19 in NNW 1.7 mph 5.8 mph 62% 0.00 in 894.0 W/m2 CLR
13:47 66.5 °F 53.5 °F 30.18 in NW 1.5 mph 3.5 mph 63% 0.00 in 902.4 W/m2 CLR
13:52 66.4 °F 52.5 °F 30.18 in ENE 3.2 mph 4.6 mph 61% 0.00 in 866.4 W/m2 CLR
13:58 67.3 °F 52.0 °F 30.18 in WNW 1.2 mph 2.3 mph 58% 0.00 in 894.0 W/m2 CLR
14:03 66.2 °F 51.4 °F 30.18 in WNW 2.6 mph 3.5 mph 59% 0.00 in 464.4 W/m2 CLR
14:08 65.4 °F 51.6 °F 30.18 in NE 0.4 mph 2.3 mph 61% 0.00 in 284.4 W/m2 CLR
14:13 66.1 °F 51.4 °F 30.18 in NW 2.7 mph 3.5 mph 59% 0.00 in 924.0 W/m2 CLR
14:18 67.5 °F 53.6 °F 30.17 in NNE 0.7 mph 2.3 mph 61% 0.00 in 810.0 W/m2 CLR
14:23 68.2 °F 52.9 °F 30.17 in NE 0.8 mph 3.5 mph 58% 0.00 in 812.4 W/m2 CLR
14:28 68.8 °F 54.3 °F 30.17 in NE 0.2 mph 2.3 mph 60% 0.00 in 801.6 W/m2 CLR
14:33 69.4 °F 54.4 °F 30.18 in NNE 2.3 mph 5.8 mph 59% 0.00 in 782.4 W/m2 CLR
14:38 67.6 °F 52.8 °F 30.17 in NE 2.2 mph 3.5 mph 59% 0.00 in 782.4 W/m2 CLR
14:43 68.2 °F 53.8 °F 30.18 in NNE 2.5 mph 4.6 mph 60% 0.00 in 745.2 W/m2 CLR
14:48 69.3 °F 52.4 °F 30.18 in NW 4.0 mph 8.1 mph 55% 0.00 in 649.2 W/m2 CLR
14:53 68.7 °F 51.4 °F 30.17 in NNW 0.6 mph 2.3 mph 54% 0.00 in 742.8 W/m2 CLR
14:58 69.1 °F 52.2 °F 30.17 in ESE 1.0 mph 3.5 mph 55% 0.00 in 754.8 W/m2 CLR
15:03 68.7 °F 52.4 °F 30.17 in West 1.6 mph 4.6 mph 56% 0.00 in 715.2 W/m2 CLR
15:08 68.9 °F 51.1 °F 30.17 in NNW 3.7 mph 6.9 mph 53% 0.00 in 710.4 W/m2 CLR
15:13 68.6 °F 51.8 °F 30.17 in ENE 1.9 mph 3.5 mph 55% 0.00 in 715.2 W/m2 CLR
15:18 69.3 °F 52.9 °F 30.17 in ENE 1.5 mph 3.5 mph 56% 0.00 in 704.4 W/m2 CLR
15:23 69.8 °F 53.9 °F 30.17 in NNE 2.2 mph 4.0 mph 57% 0.00 in 704.4 W/m2 CLR
15:28 68.9 °F 53.0 °F 30.17 in ENE 2.6 mph 5.0 mph 57% 0.00 in 660.0 W/m2 CLR
15:33 68.0 °F 53.1 °F 30.17 in ENE 2.2 mph 3.5 mph 59% 0.00 in 493.2 W/m2 CLR
15:38 67.6 °F 52.8 °F 30.17 in ESE 2.3 mph 4.6 mph 59% 0.00 in 670.8 W/m2 CLR
15:43 68.4 °F 54.4 °F 30.17 in ENE 1.6 mph 2.3 mph 61% 0.00 in 648.0 W/m2 CLR
15:48 67.8 °F 52.5 °F 30.17 in ESE 1.2 mph 2.3 mph 58% 0.00 in 202.8 W/m2 CLR
15:53 66.4 °F 52.1 °F 30.17 in East 0.9 mph 2.3 mph 60% 0.00 in 97.2 W/m2 CLR
15:58 65.4 °F 52.0 °F 30.17 in East 1.1 mph 2.3 mph 62% 0.00 in 126.0 W/m2 CLR
16:03 65.8 °F 52.4 °F 30.17 in East 1.0 mph 2.3 mph 62% 0.00 in 130.8 W/m2 CLR
16:08 66.8 °F 53.4 °F 30.17 in East 0.7 mph 1.1 mph 62% 0.00 in 286.8 W/m2 CLR
16:13 67.2 °F 52.8 °F 30.18 in ESE 0.4 mph 1.1 mph 60% 0.00 in 500.4 W/m2 CLR
16:18 67.7 °F 52.4 °F 30.18 in Calm     58% 0.00 in 462.0 W/m2 CLR
16:23 68.6 °F 52.8 °F 30.18 in ESE 0.1 mph 2.3 mph 57% 0.00 in 339.6 W/m2 CLR
16:28 68.6 °F 50.8 °F 30.18 in WNW 0.4 mph 1.1 mph 53% 0.00 in 405.6 W/m2 CLR
16:33 68.2 °F 50.4 °F 30.17 in NE 1.0 mph 3.5 mph 53% 0.00 in 400.8 W/m2 CLR
16:38 68.3 °F 51.5 °F 30.18 in NE 0.1 mph 2.3 mph 55% 0.00 in 316.8 W/m2 CLR
16:43 68.2 °F 51.9 °F 30.18 in Calm   1.1 mph 56% 0.00 in 405.6 W/m2 CLR
16:48 68.2 °F 51.4 °F 30.18 in East 0.3 mph 1.1 mph 55% 0.00 in 306.0 W/m2 CLR
16:53 68.0 °F 51.7 °F 30.18 in East 1.0 mph 2.3 mph 56% 0.00 in 337.2 W/m2 CLR
16:58 67.8 °F 52.0 °F 30.18 in ENE 1.3 mph 3.0 mph 57% 0.00 in 373.2 W/m2 CLR
17:03 67.7 °F 51.4 °F 30.18 in WNW 1.3 mph 3.0 mph 56% 0.00 in 297.6 W/m2 SCT
17:08 67.6 °F 50.9 °F 30.18 in NNE 1.1 mph 1.1 mph 55% 0.00 in 225.6 W/m2 SCT
17:13 67.6 °F 50.9 °F 30.19 in ENE 2.2 mph 3.5 mph 55% 0.00 in 166.8 W/m2 SCT
17:18 67.4 °F 50.7 °F 30.19 in WNW 0.7 mph 4.6 mph 55% 0.00 in 124.8 W/m2 SCT
17:23 67.1 °F 50.9 °F 30.19 in North 0.2 mph 2.3 mph 56% 0.00 in 80.4 W/m2 SCT
17:28 66.9 °F 50.7 °F 30.19 in Calm   3.5 mph 56% 0.00 in 63.6 W/m2 SCT
17:33 66.7 °F 51.0 °F 30.19 in NNW 0.3 mph 2.3 mph 57% 0.00 in 48.0 W/m2 SCT
17:38 66.5 °F 51.3 °F 30.19 in NNW 0.1 mph 2.3 mph 58% 0.00 in 44.4 W/m2 SCT
17:43 66.1 °F 51.4 °F 30.19 in Calm   1.1 mph 59% 0.00 in 39.6 W/m2 SCT
17:48 65.8 °F 51.1 °F 30.19 in Calm     59% 0.00 in 30.0 W/m2 SCT
17:53 65.4 °F 51.1 °F 30.19 in Calm     60% 0.00 in 25.2 W/m2 SCT
17:58 64.9 °F 50.7 °F 30.20 in ENE 0.6 mph 2.3 mph 60% 0.00 in 19.2 W/m2 SCT
18:03 64.1 °F 50.4 °F 30.20 in East 2.0 mph 2.3 mph 61% 0.00 in 14.4 W/m2 OVC
18:08 63.1 °F 49.0 °F 30.20 in East 0.9 mph 3.5 mph 60% 0.00 in 10.8 W/m2 OVC
18:13 62.3 °F 48.7 °F 30.21 in East 0.4 mph 2.3 mph 61% 0.00 in 6.0 W/m2 OVC
18:18 61.6 °F 48.0 °F 30.21 in ENE 1.8 mph 1.8 mph 61% 0.00 in 0.0 W/m2 OVC
18:23 60.9 °F 47.8 °F 30.21 in East 1.3 mph 2.3 mph 62% 0.00 in 0.0 W/m2 OVC
18:28 60.5 °F 47.8 °F 30.22 in East 0.6 mph 3.5 mph 63% 0.00 in 0.0 W/m2 OVC
18:33 60.0 °F 47.4 °F 30.22 in ENE 0.4 mph 2.3 mph 63% 0.00 in 0.0 W/m2 OVC
18:38 59.7 °F 47.5 °F 30.22 in ENE 0.1 mph 1.1 mph 64% 0.00 in 0.0 W/m2 OVC
18:43 59.4 °F 47.6 °F 30.23 in ENE 0.1 mph 1.1 mph 65% 0.00 in 0.0 W/m2 OVC
18:48 59.1 °F 47.7 °F 30.23 in ENE 0.1 mph   66% 0.00 in 0.0 W/m2 OVC
18:53 58.7 °F 47.8 °F 30.23 in ENE 0.1 mph 1.1 mph 67% 0.00 in 0.0 W/m2 OVC
18:58 58.3 °F 47.8 °F 30.23 in Calm     68% 0.00 in 0.0 W/m2 OVC
19:03 58.0 °F 47.5 °F 30.23 in Calm     68% 0.00 in 0.0 W/m2 BKN
19:08 57.6 °F 47.1 °F 30.23 in Calm     68% 0.00 in 0.0 W/m2 BKN
19:13 57.2 °F 46.7 °F 30.24 in Calm     68% 0.00 in 0.0 W/m2 BKN
19:19 56.9 °F 46.4 °F 30.24 in Calm     68% 0.00 in 0.0 W/m2 BKN
19:24 56.7 °F 46.3 °F 30.24 in NE 0.1 mph 1.1 mph 68% 0.00 in 0.0 W/m2 BKN
19:29 56.4 °F 46.4 °F 30.24 in Calm     69% 0.00 in 0.0 W/m2 BKN
Mint Hill, North Carolina, USA
Compliments of Weather Underground